Portland, Arkansas
Current Conditions -  °F | °C
As of 10:53 PM on Friday 19 Dec 2014 (Local Time) from KLLQ Reporting Station
Overcast Overcast  
Wind Chill: 42°   Ceiling: 4900
Heat Index: 44°   Visibility: 9mi
Dew Point: 39°   Wind: 5mph
Humidity: 82%   Direction: 40°NE
Pressure: 30.22"   Gusts: NA
Location:  33.24°N, 91.51°W
Report Text: KLLQ 200453Z AUTO 04004KT 9SM BKN049 OVC055 07/04 A3022 RMK AO2 SLP235 T00670039
Loading
Personal Weather Stations






























Interactive Weather Map New forecast layout! Learn more

10-Day Weather Forecast

Advertisements
Track Severe Weather on mobile